Tangier, Canada
Current Conditions -  °F | °C
As of 11:00 PM on Wednesday 22 Oct 2014 (Local Time) from CYHZ Reporting Station
Light Rain Light Rain  
Wind Chill: 52°   Ceiling: 500
Heat Index: 52°   Visibility: 6mi
Dew Point: 50°   Wind: 14mph
Humidity: 94%   Direction: 80°E
Pressure: 30.19"   Gusts: 22mph
Location:  44.8°N, 62.7°W
Report Text: CYHZ 230200Z 08012G19KT 6SM -RA BR OVC005 11/10 A3019 RMK NS8 SLP227
Loading
Personal Weather Stations






























Interactive Weather Map
Tropical Storm Tracking
New forecast layout! Learn more

10-Day Weather Forecast

Advertisements
Track Severe Weather on mobile